Time;durP1;ratioP1;P1;durP2;ratioP2;P2;SDS_P1;SDS_P2;PMS_P1;PMS_P2;Temp;Humidity;BMP_temperature;BMP_pressure;BME280_temperature;BME280_humidity;BME280_pressure;Samples;Min_cycle;Max_cycle;Signal;HPM_P1;HPM_P2
2022/05/23 00:02:07;;;;;;;3.50;2.95;;;13.60;99.90;;;;;;5044995;28;20038;-72
2022/05/23 00:04:33;;;;;;;5.28;3.08;;;13.70;99.90;;;;;;5049628;28;20060;-72
2022/05/23 00:06:59;;;;;;;5.97;3.15;;;13.70;99.90;;;;;;5040676;28;20351;-71
2022/05/23 00:09:26;;;;;;;5.53;3.30;;;13.60;99.90;;;;;;5034839;28;20055;-71
2022/05/23 00:11:52;;;;;;;5.03;3.50;;;13.70;99.90;;;;;;5049921;28;20037;-71
2022/05/23 00:14:18;;;;;;;4.35;3.15;;;13.50;99.90;;;;;;5031775;28;20044;-71
2022/05/23 00:16:48;;;;;;;4.38;2.88;;;13.50;99.90;;;;;;5034062;28;20048;-72
2022/05/23 00:19:14;;;;;;;3.83;3.13;;;13.50;99.90;;;;;;5034693;28;20128;-72
2022/05/23 00:21:42;;;;;;;4.60;2.92;;;13.60;99.90;;;;;;5048384;28;20037;-70
2022/05/23 00:24:13;;;;;;;5.88;3.10;;;13.50;99.90;;;;;;5051680;28;20483;-72
2022/05/23 00:26:40;;;;;;;4.10;3.03;;;13.40;99.90;;;;;;5045558;28;20047;-72
2022/05/23 00:29:06;;;;;;;4.40;2.72;;;13.50;99.90;;;;;;5051383;28;20033;-72
2022/05/23 00:31:32;;;;;;;5.32;3.00;;;13.50;99.90;;;;;;5050070;28;20045;-72
2022/05/23 00:36:42;;;;;;;4.90;3.40;;;13.30;99.90;;;;;;5038796;28;20055;-72
2022/05/23 00:39:08;;;;;;;4.05;3.08;;;13.30;99.90;;;;;;5035094;28;20123;-71
2022/05/23 00:44:33;;;;;;;5.43;3.30;;;13.30;99.90;;;;;;5048680;28;20103;-72
2022/05/23 00:47:02;;;;;;;6.25;3.30;;;13.30;99.90;;;;;;5018116;28;20106;-71
2022/05/23 00:49:36;;;;;;;7.20;3.45;;;13.30;99.90;;;;;;5051387;28;20045;-71
2022/05/23 00:52:06;;;;;;;3.67;3.20;;;13.20;99.90;;;;;;5050102;28;20037;-72
2022/05/23 00:54:37;;;;;;;5.53;3.70;;;13.20;99.90;;;;;;5048785;28;20041;-71
2022/05/23 00:57:05;;;;;;;6.03;3.40;;;13.20;99.90;;;;;;5049947;28;20432;-71
2022/05/23 00:59:33;;;;;;;6.03;3.70;;;13.20;99.90;;;;;;5017128;28;20092;-71
2022/05/23 01:02:01;;;;;;;7.25;3.78;;;13.20;99.90;;;;;;5048277;28;20037;-70
2022/05/23 01:04:29;;;;;;;7.65;3.65;;;13.20;99.90;;;;;;5048655;28;20500;-70
2022/05/23 01:06:54;;;;;;;6.95;3.83;;;13.20;99.90;;;;;;5032973;28;20073;-70
2022/05/23 01:09:22;;;;;;;5.57;4.15;;;13.30;99.90;;;;;;5034080;28;20079;-71
2022/05/23 01:11:49;;;;;;;7.85;4.28;;;13.20;99.90;;;;;;5048523;28;20033;-71
2022/05/23 01:14:14;;;;;;;5.43;4.18;;;13.10;99.90;;;;;;5028027;28;20069;-71
2022/05/23 01:16:40;;;;;;;5.90;4.30;;;13.30;99.90;;;;;;5042959;28;20759;-71
2022/05/23 01:19:07;;;;;;;6.43;4.50;;;13.20;99.90;;;;;;5046370;28;20362;-72
2022/05/23 01:21:42;;;;;;;5.72;4.47;;;13.10;99.90;;;;;;5029628;28;20052;-72
2022/05/23 01:24:12;;;;;;;5.80;4.32;;;13.10;99.90;;;;;;5049334;28;20531;-71
2022/05/23 01:26:38;;;;;;;6.07;4.18;;;13.10;99.90;;;;;;5048595;28;20036;-71
2022/05/23 01:29:11;;;;;;;5.82;4.82;;;13.20;99.90;;;;;;5050312;28;20037;-71
2022/05/23 01:31:38;;;;;;;9.25;4.57;;;13.10;99.90;;;;;;5048740;28;20048;-71
2022/05/23 01:34:04;;;;;;;6.53;4.55;;;13.10;99.90;;;;;;5011840;28;20041;-72
2022/05/23 01:36:29;;;;;;;5.68;4.47;;;13.10;99.90;;;;;;5049091;28;20041;-71
2022/05/23 01:38:55;;;;;;;6.60;4.97;;;13.20;99.90;;;;;;5025173;28;20440;-71
2022/05/23 01:41:21;;;;;;;8.18;4.88;;;13.10;99.90;;;;;;5015189;28;20069;-71
2022/05/23 01:43:47;;;;;;;6.30;4.57;;;13.20;99.90;;;;;;5026710;28;20047;-71
2022/05/23 01:46:13;;;;;;;5.07;4.50;;;13.20;99.90;;;;;;5049843;28;20033;-71
2022/05/23 01:48:38;;;;;;;6.03;4.25;;;13.20;99.90;;;;;;5047613;28;20124;-71
2022/05/23 01:51:04;;;;;;;5.60;4.53;;;13.10;99.90;;;;;;5050132;28;20064;-71
2022/05/23 01:53:30;;;;;;;6.43;4.95;;;13.10;99.90;;;;;;5046510;28;20102;-71
2022/05/23 01:55:58;;;;;;;7.10;4.43;;;13.10;99.90;;;;;;5030911;28;20041;-71
2022/05/23 02:01:13;;;;;;;5.43;4.32;;;13.10;99.90;;;;;;5042606;28;20139;-71
2022/05/23 02:03:41;;;;;;;5.85;4.47;;;13.10;99.90;;;;;;5048196;28;20040;-71
2022/05/23 02:06:06;;;;;;;5.75;4.32;;;13.10;99.90;;;;;;5047813;28;20049;-71
2022/05/23 02:08:32;;;;;;;5.85;4.40;;;13.20;99.90;;;;;;5046410;28;20133;-72
2022/05/23 02:10:58;;;;;;;7.88;4.25;;;13.00;99.90;;;;;;5050021;28;20041;-71
2022/05/23 02:13:24;;;;;;;5.45;4.28;;;13.10;99.90;;;;;;5015598;28;20059;-73
2022/05/23 02:15:49;;;;;;;4.68;4.20;;;13.20;99.90;;;;;;5028358;28;20041;-72
2022/05/23 02:18:15;;;;;;;5.80;4.57;;;13.20;99.90;;;;;;5050034;28;20048;-73
2022/05/23 02:20:41;;;;;;;5.72;4.13;;;13.10;99.90;;;;;;5047763;28;20045;-71
2022/05/23 02:23:07;;;;;;;6.15;3.95;;;13.10;99.90;;;;;;5034115;28;20515;-73
2022/05/23 02:25:33;;;;;;;8.35;3.90;;;13.20;99.90;;;;;;5017423;28;20334;-73
2022/05/23 02:27:58;;;;;;;7.68;4.00;;;13.20;99.90;;;;;;5046535;28;20052;-73
2022/05/23 02:30:24;;;;;;;4.57;3.60;;;13.10;99.90;;;;;;5032074;28;20045;-73
2022/05/23 02:32:50;;;;;;;5.32;3.58;;;13.20;99.90;;;;;;5024429;28;20092;-74
2022/05/23 02:35:17;;;;;;;5.53;3.85;;;13.10;99.90;;;;;;5025702;28;20504;-73
2022/05/23 02:37:43;;;;;;;4.90;3.75;;;13.20;99.90;;;;;;5048044;28;20071;-72
2022/05/23 02:40:10;;;;;;;4.57;3.70;;;13.20;99.90;;;;;;5048530;28;20136;-72
2022/05/23 02:42:36;;;;;;;4.97;3.30;;;13.20;99.90;;;;;;5045233;28;20037;-73
2022/05/23 02:45:06;;;;;;;6.32;3.83;;;13.20;99.90;;;;;;5021233;28;20072;-73
2022/05/23 02:47:32;;;;;;;5.13;3.72;;;13.20;99.90;;;;;;5042613;28;20101;-72
2022/05/23 02:49:59;;;;;;;7.95;3.67;;;13.20;99.90;;;;;;5048816;28;20041;-73
2022/05/23 02:52:24;;;;;;;5.18;3.53;;;13.30;99.90;;;;;;5022317;28;20041;-73
2022/05/23 02:54:50;;;;;;;6.80;4.20;;;13.30;99.90;;;;;;5038924;28;20183;-73
2022/05/23 02:57:16;;;;;;;5.13;3.53;;;13.30;99.90;;;;;;5043181;28;20040;-72
2022/05/23 02:59:42;;;;;;;5.38;4.00;;;13.20;99.90;;;;;;5045622;28;20052;-72
2022/05/23 03:04:52;;;;;;;4.10;3.55;;;13.20;99.90;;;;;;5034025;28;20416;-73
2022/05/23 03:07:18;;;;;;;4.03;3.22;;;13.20;99.90;;;;;;5032459;28;20045;-73
2022/05/23 03:09:44;;;;;;;5.00;3.75;;;13.10;99.90;;;;;;5048458;28;20044;-73
2022/05/23 03:12:10;;;;;;;6.55;3.67;;;13.30;99.90;;;;;;5015905;28;20041;-72
2022/05/23 03:14:36;;;;;;;6.30;3.45;;;13.20;99.90;;;;;;5018125;28;20124;-73
2022/05/23 03:17:04;;;;;;;5.03;3.47;;;13.10;99.90;;;;;;5025112;28;20481;-72
2022/05/23 03:19:30;;;;;;;9.48;3.60;;;13.20;99.90;;;;;;5049612;28;20101;-72
2022/05/23 03:27:24;;;;;;;4.30;3.38;;;13.20;99.90;;;;;;5048724;28;20052;-71
2022/05/23 03:29:51;;;;;;;4.38;3.25;;;13.20;99.90;;;;;;5050945;28;20090;-71
2022/05/23 03:32:17;;;;;;;4.88;3.25;;;13.20;99.90;;;;;;5033407;28;20044;-71
2022/05/23 03:34:43;;;;;;;4.18;3.33;;;13.30;99.90;;;;;;5028415;28;20059;-70
2022/05/23 03:37:08;;;;;;;5.43;3.50;;;13.30;99.90;;;;;;5027335;28;20045;-71
2022/05/23 03:39:37;;;;;;;4.72;3.80;;;13.30;99.90;;;;;;5015675;28;20429;-72
2022/05/23 03:42:04;;;;;;;6.60;3.85;;;13.30;99.90;;;;;;5033185;28;20120;-72
2022/05/23 03:44:30;;;;;;;5.78;3.38;;;13.20;99.90;;;;;;5046939;28;20048;-72
2022/05/23 03:46:56;;;;;;;5.30;3.53;;;13.20;99.90;;;;;;5009991;28;20061;-72
2022/05/23 03:49:21;;;;;;;4.22;3.42;;;13.20;99.90;;;;;;5053100;28;20397;-72
2022/05/23 03:51:47;;;;;;;4.00;3.58;;;13.30;99.90;;;;;;5036785;28;20098;-73
2022/05/23 03:54:13;;;;;;;6.10;3.38;;;13.40;99.90;;;;;;5020665;28;20051;-72
2022/05/23 03:56:38;;;;;;;5.15;3.60;;;13.30;99.90;;;;;;5043919;28;20046;-72
2022/05/23 03:59:04;;;;;;;5.40;3.35;;;13.30;99.90;;;;;;5016744;28;20045;-73
2022/05/23 04:01:30;;;;;;;5.60;3.20;;;13.30;99.90;;;;;;5036731;28;20409;-73
2022/05/23 04:03:57;;;;;;;3.78;3.30;;;13.30;99.90;;;;;;5036123;28;20048;-72
2022/05/23 04:06:23;;;;;;;8.80;3.92;;;13.40;99.90;;;;;;5047374;28;20056;-73
2022/05/23 04:08:49;;;;;;;4.38;3.65;;;13.40;99.90;;;;;;5050461;28;20045;-73
2022/05/23 04:11:14;;;;;;;6.65;3.67;;;13.40;99.90;;;;;;5052566;28;20049;-73
2022/05/23 04:13:40;;;;;;;3.95;3.05;;;13.50;99.90;;;;;;5039283;28;20048;-71
2022/05/23 04:16:06;;;;;;;3.85;3.08;;;13.50;99.90;;;;;;5034026;28;20099;-72
2022/05/23 04:18:33;;;;;;;4.82;3.40;;;13.40;99.90;;;;;;5034800;28;20068;-71
2022/05/23 04:21:01;;;;;;;3.97;3.10;;;13.40;99.90;;;;;;5021637;28;20518;-72
2022/05/23 04:23:27;;;;;;;3.92;3.35;;;13.40;99.90;;;;;;5016210;28;20112;-71
2022/05/23 04:25:53;;;;;;;4.80;3.33;;;13.50;99.90;;;;;;5051045;28;20037;-71
2022/05/23 04:28:20;;;;;;;8.75;3.70;;;13.40;99.90;;;;;;5033142;28;20033;-71
2022/05/23 04:30:46;;;;;;;4.22;3.22;;;13.50;99.90;;;;;;5037493;28;20123;-71
2022/05/23 04:35:58;;;;;;;5.38;3.35;;;13.30;99.90;;;;;;5048389;28;20041;-71
2022/05/23 04:38:24;;;;;;;5.38;3.38;;;13.40;99.90;;;;;;5051958;28;20045;-71
2022/05/23 04:40:50;;;;;;;4.45;3.38;;;13.30;99.90;;;;;;5032487;28;20412;-73
2022/05/23 04:43:17;;;;;;;4.93;3.55;;;13.50;99.90;;;;;;5019676;28;20044;-74
2022/05/23 04:45:42;;;;;;;5.38;3.17;;;13.50;99.90;;;;;;5018170;28;20036;-73
2022/05/23 04:50:53;;;;;;;8.02;3.60;;;13.70;99.90;;;;;;5040822;28;20057;-73
2022/05/23 04:53:19;;;;;;;6.28;3.45;;;13.70;99.90;;;;;;5042647;28;20032;-71
2022/05/23 04:55:45;;;;;;;5.20;3.50;;;13.70;99.90;;;;;;5034230;28;20045;-71
2022/05/23 04:58:12;;;;;;;6.05;3.50;;;13.50;99.90;;;;;;5038673;28;20080;-71
2022/05/23 05:00:40;;;;;;;7.53;3.80;;;13.60;99.90;;;;;;5047516;28;20037;-71
2022/05/23 05:03:06;;;;;;;4.97;3.45;;;13.60;99.90;;;;;;5027877;28;20037;-72
2022/05/23 05:05:35;;;;;;;6.13;3.90;;;13.80;99.90;;;;;;5041611;28;20049;-71
2022/05/23 05:08:02;;;;;;;5.43;3.70;;;13.80;99.90;;;;;;5048959;28;20052;-71
2022/05/23 05:10:29;;;;;;;6.85;3.90;;;13.70;99.90;;;;;;5026047;28;20041;-71
2022/05/23 05:12:55;;;;;;;5.68;3.45;;;13.80;99.90;;;;;;5038073;28;20389;-71
2022/05/23 05:15:23;;;;;;;5.55;3.72;;;13.90;99.90;;;;;;5050657;28;20052;-71
2022/05/23 05:17:49;;;;;;;6.50;3.55;;;13.90;99.90;;;;;;5046619;28;20043;-71
2022/05/23 05:20:18;;;;;;;6.25;4.18;;;13.90;99.90;;;;;;5031680;28;20536;-71
2022/05/23 05:22:44;;;;;;;5.82;4.07;;;14.10;99.90;;;;;;5048825;28;20481;-71
2022/05/23 05:25:12;;;;;;;6.40;4.10;;;14.20;99.90;;;;;;5050996;28;20140;-71
2022/05/23 05:27:38;;;;;;;6.35;4.18;;;14.30;99.90;;;;;;5048256;28;20048;-71
2022/05/23 05:30:07;;;;;;;7.32;4.85;;;14.30;99.90;;;;;;5013752;28;20041;-71
2022/05/23 05:32:58;;;;;;;5.93;3.88;;;14.40;99.90;;;;;;5018359;28;20069;-71
2022/05/23 05:35:33;;;;;;;7.47;4.57;;;14.40;99.90;;;;;;5031930;28;20057;-70
2022/05/23 05:38:05;;;;;;;8.63;4.65;;;14.50;99.90;;;;;;5050404;28;20135;-72
2022/05/23 05:40:34;;;;;;;5.30;4.15;;;14.50;99.90;;;;;;5048095;28;20048;-71
2022/05/23 05:43:10;;;;;;;6.50;3.95;;;14.50;99.90;;;;;;5055432;28;20055;-71
2022/05/23 05:45:49;;;;;;;6.25;4.25;;;14.60;99.90;;;;;;5049260;28;20052;-71
2022/05/23 05:48:15;;;;;;;7.00;5.00;;;14.80;99.90;;;;;;5049698;28;20043;-71
2022/05/23 05:50:43;;;;;;;8.25;5.40;;;14.70;99.90;;;;;;5032927;28;20056;-72
2022/05/23 05:53:14;;;;;;;6.72;4.88;;;14.60;99.90;;;;;;5027629;28;20061;-71
2022/05/23 05:55:42;;;;;;;9.13;5.28;;;14.80;99.90;;;;;;5033560;28;20052;-72
2022/05/23 05:58:09;;;;;;;7.15;4.90;;;14.60;99.90;;;;;;5048936;28;20045;-72
2022/05/23 06:00:35;;;;;;;7.57;5.03;;;14.70;99.90;;;;;;5030337;28;20045;-71
2022/05/23 06:03:00;;;;;;;8.38;4.97;;;14.60;99.90;;;;;;5047730;28;20846;-70
2022/05/23 06:05:27;;;;;;;9.45;4.95;;;14.70;99.90;;;;;;5049264;28;20077;-70
2022/05/23 06:13:21;;;;;;;7.47;5.03;;;14.90;99.90;;;;;;5049110;28;20090;-72
2022/05/23 06:15:46;;;;;;;9.40;5.88;;;15.10;99.90;;;;;;5009788;28;20080;-70
2022/05/23 06:18:12;;;;;;;8.27;5.78;;;15.30;99.90;;;;;;5030789;28;20519;-70
2022/05/23 06:20:39;;;;;;;7.55;5.43;;;15.20;99.90;;;;;;5048378;28;20043;-71
2022/05/23 06:23:05;;;;;;;6.22;5.60;;;15.20;99.90;;;;;;5047524;28;20381;-71
2022/05/23 06:25:31;;;;;;;7.47;5.65;;;15.30;99.90;;;;;;5010392;28;20049;-70
2022/05/23 06:27:57;;;;;;;7.35;5.38;;;15.30;99.90;;;;;;5030335;28;20060;-71
2022/05/23 06:30:23;;;;;;;7.25;5.13;;;15.30;99.90;;;;;;5020413;28;20399;-71
2022/05/23 06:32:49;;;;;;;5.93;5.30;;;15.30;99.90;;;;;;5031572;28;20623;-71
2022/05/23 06:35:15;;;;;;;8.30;5.28;;;15.20;99.90;;;;;;5029457;28;20045;-70
2022/05/23 06:37:42;;;;;;;6.38;5.68;;;15.30;99.90;;;;;;5049005;28;20627;-71
2022/05/23 06:40:11;;;;;;;8.85;5.80;;;15.60;99.90;;;;;;5049111;28;20040;-71
2022/05/23 06:42:37;;;;;;;8.32;5.80;;;15.70;99.90;;;;;;5045036;28;20067;-72
2022/05/23 06:45:05;;;;;;;7.40;6.03;;;15.70;99.90;;;;;;5022201;28;20107;-72
2022/05/23 06:47:31;;;;;;;9.43;6.30;;;15.70;99.90;;;;;;5048369;28;20041;-72
2022/05/23 06:49:57;;;;;;;7.70;5.82;;;16.00;99.90;;;;;;5032202;28;20457;-73
2022/05/23 06:52:23;;;;;;;11.48;6.13;;;16.00;99.90;;;;;;5044409;28;20048;-71
2022/05/23 06:54:49;;;;;;;9.18;6.50;;;16.30;99.90;;;;;;5047475;28;20120;-73
2022/05/23 06:57:14;;;;;;;10.15;6.53;;;16.30;99.90;;;;;;5031655;28;20044;-73
2022/05/23 06:59:40;;;;;;;7.95;6.00;;;16.40;99.90;;;;;;5048168;28;20045;-71
2022/05/23 07:02:07;;;;;;;8.05;6.13;;;16.30;99.90;;;;;;5032823;28;20045;-71
2022/05/23 07:12:50;;;;;;;;;;;16.60;99.90;;;;;;5024266;28;20139;-71
2022/05/23 07:15:16;;;;;;;9.63;6.78;;;16.60;99.90;;;;;;5028338;28;20293;-72
2022/05/23 07:17:42;;;;;;;9.00;5.97;;;16.80;99.90;;;;;;5021091;28;20045;-72
2022/05/23 07:20:08;;;;;;;11.88;6.45;;;16.90;99.90;;;;;;5048469;28;20094;-73
2022/05/23 07:22:34;;;;;;;12.25;7.28;;;17.00;99.90;;;;;;5049835;28;20386;-73
2022/05/23 07:25:01;;;;;;;7.95;6.65;;;17.10;99.90;;;;;;5028427;28;20096;-72
2022/05/23 07:27:28;;;;;;;8.93;6.70;;;17.00;99.90;;;;;;5041005;28;20038;-73
2022/05/23 07:29:54;;;;;;;11.13;6.57;;;17.10;99.90;;;;;;5047429;28;20055;-73
2022/05/23 07:32:20;;;;;;;8.32;6.40;;;17.30;99.90;;;;;;5046964;28;20702;-72
2022/05/23 07:34:46;;;;;;;6.63;6.03;;;17.20;99.90;;;;;;5031646;28;20044;-72
2022/05/23 07:37:15;;;;;;;10.50;7.53;;;17.30;99.90;;;;;;5046781;28;20194;-72
2022/05/23 07:39:41;;;;;;;14.02;6.82;;;17.50;99.90;;;;;;5048713;28;20120;-73
2022/05/23 07:42:07;;;;;;;9.07;6.53;;;17.60;99.90;;;;;;5049196;28;20122;-72
2022/05/23 07:44:34;;;;;;;10.50;6.38;;;17.60;99.90;;;;;;5033578;28;20389;-71
2022/05/23 07:47:00;;;;;;;9.88;6.25;;;17.60;99.90;;;;;;5047075;28;20445;-71
2022/05/23 07:49:26;;;;;;;8.40;6.07;;;17.60;99.90;;;;;;5030631;28;20160;-72
2022/05/23 07:51:53;;;;;;;9.45;6.30;;;17.80;99.90;;;;;;5033290;28;20033;-72
2022/05/23 08:02:33;;;;;;;8.38;6.13;;;18.10;99.90;;;;;;5038413;28;20107;-71
2022/05/23 08:04:59;;;;;;;7.68;6.47;;;18.10;99.90;;;;;;5045540;28;20075;-70
2022/05/23 08:07:28;;;;;;;9.10;6.30;;;18.20;99.90;;;;;;5029196;28;20190;-71
2022/05/23 08:09:55;;;;;;;10.32;6.80;;;18.20;99.90;;;;;;5046790;28;20037;-72
2022/05/23 08:12:22;;;;;;;7.97;6.13;;;18.30;99.90;;;;;;5009762;28;20041;-71
2022/05/23 08:14:47;;;;;;;9.10;5.68;;;18.60;99.90;;;;;;5047028;28;20041;-70
2022/05/23 08:17:13;;;;;;;8.63;5.95;;;18.60;99.90;;;;;;5014535;28;20133;-70
2022/05/23 08:19:39;;;;;;;7.13;5.57;;;18.70;99.90;;;;;;5021208;28;20045;-70
2022/05/23 08:22:06;;;;;;;9.13;5.93;;;18.80;99.90;;;;;;5039845;28;20045;-70
2022/05/23 08:24:33;;;;;;;10.68;6.18;;;18.90;99.90;;;;;;5044013;28;20504;-70
2022/05/23 08:27:00;;;;;;;7.90;6.10;;;19.00;99.90;;;;;;5025722;28;20037;-69
2022/05/23 08:29:26;;;;;;;9.45;5.68;;;19.00;99.90;;;;;;5052540;28;20049;-69
2022/05/23 08:31:52;;;;;;;8.27;5.32;;;19.00;99.90;;;;;;5050350;28;20048;-70
2022/05/23 08:34:18;;;;;;;7.43;5.90;;;19.30;99.90;;;;;;5051621;28;20112;-70
2022/05/23 08:36:44;;;;;;;8.65;5.63;;;19.50;99.90;;;;;;5051245;28;20527;-70
2022/05/23 08:39:10;;;;;;;7.53;5.68;;;19.50;99.90;;;;;;5035386;28;20116;-70
2022/05/23 08:41:41;;;;;;;9.65;5.57;;;19.70;99.90;;;;;;5019769;28;20033;-70
2022/05/23 08:44:22;;;;;;;8.10;5.50;;;19.70;99.90;;;;;;5032963;28;20110;-70
2022/05/23 08:47:26;;;;;;;8.27;5.25;;;19.80;99.90;;;;;;5046958;28;20049;-70
2022/05/23 08:50:11;;;;;;;7.55;5.47;;;19.70;99.90;;;;;;5014513;28;20111;-70
2022/05/23 08:53:01;;;;;;;6.88;5.05;;;20.00;99.90;;;;;;5032944;28;20071;-70
2022/05/23 08:55:36;;;;;;;6.82;5.18;;;19.90;99.90;;;;;;5016484;28;20048;-69
2022/05/23 08:58:10;;;;;;;7.93;5.30;;;20.00;99.90;;;;;;5045282;28;20485;-70
2022/05/23 09:00:39;;;;;;;;;;;20.10;99.90;;;;;;5050997;28;20048;-69
2022/05/23 09:03:44;;;;;;;5.97;5.30;;;20.20;99.90;;;;;;5038877;28;19921;-70
2022/05/23 09:06:18;;;;;;;8.83;5.57;;;20.20;99.90;;;;;;5041239;28;20049;-71
2022/05/23 09:08:54;;;;;;;7.75;5.00;;;20.20;99.90;;;;;;5050275;28;20086;-70
2022/05/23 09:11:34;;;;;;;7.18;5.78;;;20.50;99.90;;;;;;5050037;28;20121;-70
2022/05/23 09:14:00;;;;;;;7.93;4.57;;;20.60;99.90;;;;;;5030896;28;20053;-70
2022/05/23 09:16:31;;;;;;;7.82;5.20;;;20.60;99.90;;;;;;5019811;28;20037;-70
2022/05/23 09:19:22;;;;;;;6.45;4.78;;;21.10;99.90;;;;;;5026747;28;20048;-70
2022/05/23 09:24:57;;;;;;;6.00;4.18;;;21.70;99.90;;;;;;5017108;28;20080;-69
2022/05/23 09:27:36;;;;;;;6.05;4.05;;;22.10;99.90;;;;;;5036870;28;20143;-70
2022/05/23 09:30:11;;;;;;;10.80;4.47;;;22.10;99.90;;;;;;5050365;28;20378;-71
2022/05/23 09:32:53;;;;;;;4.88;4.32;;;22.50;99.90;;;;;;5047404;28;20041;-71
2022/05/23 09:35:25;;;;;;;7.35;3.95;;;22.70;99.90;;;;;;5049426;28;20037;-69
2022/05/23 09:38:15;;;;;;;4.90;3.92;;;23.20;99.90;;;;;;5048714;28;20095;-69
2022/05/23 09:40:42;;;;;;;4.90;3.55;;;23.20;99.90;;;;;;5048286;28;20497;-70
2022/05/23 09:49:09;;;;;;;5.93;2.90;;;23.30;99.90;;;;;;5049064;28;20047;-70
2022/05/23 09:52:16;;;;;;;4.03;3.13;;;23.60;99.90;;;;;;5046694;28;20045;-70
2022/05/23 09:55:01;;;;;;;5.20;3.00;;;23.50;99.90;;;;;;5027137;28;20110;-71
2022/05/23 09:57:39;;;;;;;5.10;3.00;;;23.70;99.90;;;;;;5050425;28;20041;-69
2022/05/23 10:00:05;;;;;;;5.70;2.78;;;23.40;99.90;;;;;;5049342;28;20235;-69
2022/05/23 10:02:47;;;;;;;5.00;3.42;;;23.10;99.90;;;;;;5049107;28;20041;-70
2022/05/23 10:05:26;;;;;;;4.05;2.80;;;23.00;99.90;;;;;;5049141;28;20061;-71
2022/05/23 10:08:01;;;;;;;4.90;3.05;;;23.10;99.90;;;;;;5050217;28;20514;-71
2022/05/23 10:10:34;;;;;;;3.80;2.92;;;22.90;99.90;;;;;;5046892;28;20631;-71
2022/05/23 10:13:25;;;;;;;5.03;3.33;;;23.00;99.90;;;;;;5045871;28;20499;-70
2022/05/23 10:15:59;;;;;;;5.18;3.13;;;23.00;99.90;;;;;;5031612;28;20083;-72
2022/05/23 10:18:35;;;;;;;;;;;23.00;99.90;;;;;;5049892;28;20041;-70
2022/05/23 10:21:18;;;;;;;5.00;3.17;;;23.00;99.90;;;;;;5031162;28;19924;-69
2022/05/23 10:23:58;;;;;;;6.88;4.30;;;23.00;99.90;;;;;;5048051;28;20965;-69
2022/05/23 10:26:25;;;;;;;4.32;3.30;;;23.20;99.90;;;;;;5029342;28;20472;-68
2022/05/23 10:29:01;;;;;;;7.07;3.30;;;23.20;99.90;;;;;;5029343;28;20045;-71
2022/05/23 10:31:45;;;;;;;3.47;2.63;;;23.00;99.90;;;;;;5029202;28;20037;-70
2022/05/23 10:34:34;;;;;;;5.28;2.97;;;23.00;99.90;;;;;;5047066;28;20056;-69
2022/05/23 10:37:04;;;;;;;4.25;2.50;;;22.90;99.90;;;;;;5028485;28;20048;-70
2022/05/23 10:42:17;;;;;;;;;;;23.00;99.90;;;;;;5048244;28;20425;-69
2022/05/23 10:45:11;;;;;;;3.92;2.38;;;23.00;99.90;;;;;;5029682;28;20276;-70
2022/05/23 10:48:10;;;;;;;3.22;2.65;;;23.00;99.90;;;;;;5042633;28;20041;-70
2022/05/23 10:51:00;;;;;;;3.78;2.63;;;23.30;99.90;;;;;;5039920;28;20401;-68
2022/05/23 10:53:53;;;;;;;4.93;3.70;;;23.70;99.90;;;;;;5052807;28;20041;-70
2022/05/23 10:56:34;;;;;;;5.07;3.20;;;23.90;99.90;;;;;;5036712;28;20432;-69
2022/05/23 10:59:09;;;;;;;8.07;3.38;;;24.00;99.90;;;;;;5031423;28;20051;-68
2022/05/23 11:01:55;;;;;;;4.60;2.67;;;24.50;99.90;;;;;;5044801;28;20049;-71
2022/05/23 11:04:27;;;;;;;3.20;2.58;;;24.60;99.90;;;;;;5024825;28;20060;-70
2022/05/23 11:06:59;;;;;;;3.38;2.47;;;24.30;99.90;;;;;;5042688;28;20049;-69
2022/05/23 11:09:27;;;;;;;3.13;2.70;;;24.30;99.90;;;;;;5041164;28;20046;-71
2022/05/23 11:12:05;;;;;;;2.95;2.17;;;24.30;99.90;;;;;;5025627;28;20420;-71
2022/05/23 11:14:56;;;;;;;4.82;2.72;;;24.20;99.90;;;;;;5047661;28;20473;-70
2022/05/23 11:17:34;;;;;;;4.20;2.40;;;24.20;99.90;;;;;;5042883;28;20039;-69
2022/05/23 11:20:18;;;;;;;3.78;2.58;;;24.50;99.90;;;;;;5030314;28;20041;-71
2022/05/23 11:22:50;;;;;;;2.28;1.92;;;24.80;99.90;;;;;;5029298;28;20057;-69
2022/05/23 11:25:32;;;;;;;3.25;1.98;;;24.80;99.90;;;;;;5043332;28;20396;-71
2022/05/23 11:34:09;;;;;;;2.63;2.20;;;25.20;99.90;;;;;;5048987;28;20049;-69
2022/05/23 11:39:51;;;;;;;4.25;2.15;;;25.50;99.90;;;;;;5046962;28;20572;-71
2022/05/23 11:42:36;;;;;;;3.25;2.20;;;25.30;99.90;;;;;;5047944;28;20492;-70
2022/05/23 11:45:56;;;;;;;2.97;1.63;;;25.40;99.90;;;;;;5048639;28;20508;-71
2022/05/23 11:47:53;;;;;;;2.03;1.83;;;25.40;99.90;;;;;;5047963;28;20032;-72
2022/05/23 11:50:29;;;;;;;3.83;1.83;;;25.40;99.90;;;;;;5047863;28;20051;-72
2022/05/23 11:53:34;;;;;;;2.88;2.13;;;25.50;99.90;;;;;;5032270;28;20052;-71
2022/05/23 11:56:03;;;;;;;3.72;2.03;;;25.50;99.90;;;;;;5044339;28;20053;-71
2022/05/23 11:58:47;;;;;;;2.60;1.90;;;25.70;99.90;;;;;;5030989;28;20124;-71
2022/05/23 12:01:16;;;;;;;2.50;1.58;;;25.40;99.90;;;;;;5034999;28;20064;-70
2022/05/23 12:03:49;;;;;;;1.98;1.77;;;25.40;99.90;;;;;;5052171;28;20048;-70
2022/05/23 12:06:18;;;;;;;4.10;2.45;;;25.50;99.90;;;;;;5051863;28;20059;-69
2022/05/23 12:09:04;;;;;;;3.65;1.95;;;25.60;99.90;;;;;;5051419;28;20060;-72
2022/05/23 12:11:33;;;;;;;3.03;2.03;;;25.50;99.90;;;;;;5051614;28;20048;-71
2022/05/23 12:14:19;;;;;;;3.65;1.70;;;25.40;99.90;;;;;;5052165;28;20048;-69
2022/05/23 12:17:01;;;;;;;3.35;1.70;;;25.30;99.90;;;;;;5035671;28;20045;-70
2022/05/23 12:19:39;;;;;;;3.05;2.13;;;25.10;99.90;;;;;;5050028;28;20045;-71
2022/05/23 12:22:22;;;;;;;2.10;1.70;;;24.80;99.90;;;;;;5052550;28;20355;-71
2022/05/23 12:25:23;;;;;;;5.10;2.37;;;24.70;99.90;;;;;;5052440;28;20555;-71
2022/05/23 12:27:51;;;;;;;3.17;2.20;;;24.60;99.90;;;;;;5030431;28;20056;-71
2022/05/23 12:30:17;;;;;;;3.15;2.30;;;24.70;99.90;;;;;;5027932;28;20036;-70
2022/05/23 12:32:58;;;;;;;2.95;1.80;;;24.90;99.90;;;;;;5052273;28;20048;-71
2022/05/23 12:35:41;;;;;;;3.28;2.47;;;25.00;99.90;;;;;;5034772;28;20040;-70
2022/05/23 12:38:35;;;;;;;3.30;1.80;;;25.20;99.90;;;;;;5051749;28;20052;-72
2022/05/23 12:41:34;;;;;;;3.65;2.53;;;25.60;99.90;;;;;;5047794;28;20045;-73
2022/05/23 12:44:08;;;;;;;6.53;2.53;;;25.90;99.90;;;;;;5051646;28;20045;-72
2022/05/23 12:47:04;;;;;;;3.13;2.28;;;25.50;99.90;;;;;;5051237;28;20033;-71
2022/05/23 12:49:45;;;;;;;3.40;1.90;;;25.50;99.90;;;;;;5049504;28;20151;-72
2022/05/23 12:52:30;;;;;;;2.53;2.00;;;25.50;99.90;;;;;;5051098;28;20045;-72
2022/05/23 12:55:01;;;;;;;3.60;2.30;;;25.30;99.90;;;;;;5051340;28;20143;-72
2022/05/23 12:58:13;;;;;;;3.03;2.00;;;25.30;99.90;;;;;;5051069;28;20124;-72
2022/05/23 13:00:53;;;;;;;3.10;2.17;;;25.20;99.90;;;;;;5050152;28;20518;-72
2022/05/23 13:03:46;;;;;;;2.72;2.03;;;24.90;99.90;;;;;;5051405;28;20049;-70
2022/05/23 13:06:18;;;;;;;5.63;2.17;;;24.70;99.90;;;;;;5034156;28;20144;-71
2022/05/23 13:09:06;;;;;;;3.80;2.60;;;24.50;99.90;;;;;;5051387;28;20055;-72
2022/05/23 13:11:33;;;;;;;2.78;2.28;;;24.30;99.90;;;;;;5048671;28;20390;-71
2022/05/23 13:13:59;;;;;;;4.20;2.60;;;24.30;99.90;;;;;;5051608;28;20056;-71
2022/05/23 13:16:37;;;;;;;6.05;2.35;;;24.30;99.90;;;;;;5050984;28;20045;-72
2022/05/23 13:22:06;;;;;;;2.93;2.20;;;24.30;99.90;;;;;;5049747;28;20056;-71
2022/05/23 13:24:49;;;;;;;2.67;2.30;;;24.30;99.90;;;;;;5049932;28;20133;-71
2022/05/23 13:27:31;;;;;;;3.10;2.38;;;24.30;99.90;;;;;;5050277;28;20051;-72
2022/05/23 13:30:06;;;;;;;6.18;2.40;;;24.20;99.90;;;;;;5034417;28;20043;-69
2022/05/23 13:32:33;;;;;;;3.15;2.38;;;24.30;99.90;;;;;;5049224;28;20045;-71
2022/05/23 13:34:59;;;;;;;3.20;2.33;;;24.50;99.90;;;;;;4999028;28;20029;-69
2022/05/23 13:37:26;;;;;;;5.47;2.53;;;24.40;99.90;;;;;;5046284;28;20116;-71
2022/05/23 13:39:53;;;;;;;3.13;2.28;;;24.40;99.90;;;;;;5046853;28;20049;-70
2022/05/23 13:42:24;;;;;;;4.22;2.35;;;24.20;99.90;;;;;;5044841;28;20076;-70
2022/05/23 13:44:50;;;;;;;5.22;2.22;;;24.20;99.90;;;;;;5030902;28;20077;-69
2022/05/23 13:47:32;;;;;;;3.50;1.98;;;24.30;99.90;;;;;;5040048;28;20484;-70
2022/05/23 13:50:08;;;;;;;4.75;2.30;;;24.10;99.90;;;;;;5050468;28;20045;-69
2022/05/23 13:53:01;;;;;;;2.88;2.50;;;24.00;99.90;;;;;;5047662;28;20049;-71
2022/05/23 13:55:36;;;;;;;3.42;2.28;;;23.90;99.90;;;;;;5031486;28;20037;-70
2022/05/23 13:58:09;;;;;;;3.13;2.63;;;23.90;99.90;;;;;;5032364;28;20564;-70
2022/05/23 14:00:43;;;;;;;3.07;2.63;;;23.70;99.90;;;;;;5026896;28;20053;-72
2022/05/23 14:03:37;;;;;;;4.87;2.87;;;23.60;99.90;;;;;;5038436;28;20036;-72
2022/05/23 14:06:05;;;;;;;;;;;23.50;99.90;;;;;;5019873;28;20056;-70
2022/05/23 14:08:44;;;;;;;3.13;2.42;;;23.50;99.90;;;;;;5017666;28;19968;-70
2022/05/23 14:11:23;;;;;;;5.47;2.83;;;23.60;99.90;;;;;;5037620;28;20489;-69
2022/05/23 14:13:51;;;;;;;3.00;2.50;;;23.50;99.90;;;;;;5042390;28;20132;-71
2022/05/23 14:16:19;;;;;;;3.35;2.45;;;23.50;99.90;;;;;;5040418;28;20170;-71
2022/05/23 14:19:09;;;;;;;5.18;2.58;;;23.50;99.90;;;;;;5044454;28;20120;-71